Hindu — WDG6190 — position and weather

sailwx.info

Track history (hours):
 
Tides and Currents Weather Stations Pressure Air Temp Water Temp Dewpoint Dewpoint Depression Visibility Wind Speed Wind Dir Waves Ship Positions

Hindu

Owner: Hindu Charters LLC, Key West, FL. More information available from US FCC via Universal Licensing System and Coast Guard Vessel Documentation Center.

Last reported at 2018-Oct-22 02:38 UTC. Time now 2018-Dec-12 06:05 UTC.
Position N 25°42' W 080°06'.
Warning: this ship's position is 51 days out of date.

Length 25 m.

Type: Sailing vessel. MMSI: 367554370.

Date/timePositionNaut miles runAvg speedWind from/ knotsBaromVisibWave heightAir tempDewpointWater temp
2018-Oct-22 02:38N 25°42' W 080°06'1 7.6
2018-Oct-22 02:29N 25°43' W 080°06'3 7.2
2018-Oct-22 02:02N 25°46' W 080°06'2 6.8
2018-Oct-22 01:49N 25°48' W 080°06'2 6.6
2018-Oct-22 01:29N 25°50' W 080°06'3 6.3
2018-Oct-22 00:58N 25°53' W 080°06'4 7.0
2018-Oct-22 00:25N 25°57' W 080°05'4 6.9
2018-Oct-21 23:54N 26°01' W 080°05'3 7.0
2018-Oct-21 23:25N 26°04' W 080°05'51 6.6
2018-Oct-21 15:47N 26°55' W 080°02'  
2018-Oct-12 11:32N 39°16' W 076°35'0 7.2
2018-Oct-12 11:30N 39°16' W 076°35'  
Track history (hours):
 
Tides and Currents Weather Stations Pressure Air Temp Water Temp Dewpoint Dewpoint Depression Visibility Wind Speed Wind Dir Waves Ship Positions

Hindu

Owner: Hindu Charters LLC, Key West, FL. More information available from US FCC via Universal Licensing System and Coast Guard Vessel Documentation Center.

Last reported at 2018-Oct-22 02:38 UTC. Time now 2018-Dec-12 06:05 UTC.
Position N 25°42' W 080°06'.
Warning: this ship's position is 51 days out of date.

Length 25 m.

Type: Sailing vessel. MMSI: 367554370.

Date/timePositionNaut miles runAvg speedWind from/ knotsBaromVisibWave heightAir tempDewpointWater temp
2018-Oct-22 02:38N 25°42' W 080°06'1 7.6
2018-Oct-22 02:29N 25°43' W 080°06'3 7.2
2018-Oct-22 02:02N 25°46' W 080°06'2 6.8
2018-Oct-22 01:49N 25°48' W 080°06'2 6.6
2018-Oct-22 01:29N 25°50' W 080°06'3 6.3
2018-Oct-22 00:58N 25°53' W 080°06'4 7.0
2018-Oct-22 00:25N 25°57' W 080°05'4 6.9
2018-Oct-21 23:54N 26°01' W 080°05'3 7.0
2018-Oct-21 23:25N 26°04' W 080°05'51 6.6
2018-Oct-21 15:47N 26°55' W 080°02'  
2018-Oct-12 11:32N 39°16' W 076°35'0 7.2
2018-Oct-12 11:30N 39°16' W 076°35'  

Dump ship's entire track history